La rose des vents
Donnes mto: Semaine 11/01/21 - 17/01/21 (S 2)
Date Horaire Temp. E. Hum. E. P.atmo. Pluie Vent 1mn Direction Ensoleilleme Ev.Tr. Solaire P. de rose Temp au vent Rafales
11/01/2021 00:00 5,3 C 80 % 1013,7 hPa 0,0 l/m 1,0 km/h (0 Bft) O-NO 0,00 h 0,000 mm 0 W/m 2,1 C 5,3 C 2,5 km/h (1 Bft)
11/01/2021 01:00 5,4 C 77 % 1013,7 hPa 0,0 l/m 1,9 km/h (1 Bft) O-NO 0,00 h 0,025 mm 0 W/m 1,7 C 5,4 C 3,8 km/h (1 Bft)
11/01/2021 02:00 4,8 C 78 % 1014,0 hPa 0,0 l/m 1,1 km/h (0 Bft) O-NO 0,00 h 0,025 mm 0 W/m 1,3 C 4,8 C 3,4 km/h (1 Bft)
11/01/2021 03:00 3,8 C 81 % 1014,3 hPa 0,0 l/m 0,9 km/h (0 Bft) O-NO 0,00 h 0,025 mm 0 W/m 0,8 C 3,8 C 2,2 km/h (1 Bft)
11/01/2021 04:00 3,5 C 82 % 1013,9 hPa 0,0 l/m 0,8 km/h (0 Bft) O-NO 0,00 h 0,000 mm 0 W/m 0,7 C 3,5 C 2,7 km/h (1 Bft)
11/01/2021 05:00 3,2 C 82 % 1014,1 hPa 0,0 l/m 1,1 km/h (1 Bft) O-NO 0,00 h 0,000 mm 0 W/m 0,4 C 3,2 C 2,8 km/h (1 Bft)
11/01/2021 06:00 2,8 C 81 % 1014,5 hPa 0,0 l/m 3,1 km/h (1 Bft) O-NO 0,00 h 0,000 mm 0 W/m -0,0 C 2,7 C 5,7 km/h (1 Bft)
11/01/2021 07:00 2,8 C 78 % 1014,7 hPa 0,0 l/m 3,5 km/h (1 Bft) O-NO 0,00 h 0,025 mm 0 W/m -0,6 C 2,5 C 6,4 km/h (2 Bft)
11/01/2021 08:00 3,2 C 75 % 1015,2 hPa 0,0 l/m 3,5 km/h (1 Bft) O-NO 0,58 h 0,000 mm 39 W/m -0,8 C 2,8 C 7,6 km/h (2 Bft)
11/01/2021 09:00 5,3 C 70 % 1016,0 hPa 0,0 l/m 1,3 km/h (1 Bft) NO 1,00 h 0,025 mm 163 W/m 0,3 C 5,3 C 3,8 km/h (1 Bft)
11/01/2021 10:00 7,9 C 67 % 1016,9 hPa 0,0 l/m 0,0 km/h (0 Bft) N 1,00 h 0,076 mm 345 W/m 2,2 C 7,9 C 0,0 km/h (0 Bft)
11/01/2021 11:00 10,7 C 68 % 1017,2 hPa 0,0 l/m 0,0 km/h (0 Bft) N 1,00 h 0,152 mm 351 W/m 5,0 C 10,7 C 0,1 km/h (0 Bft)
11/01/2021 12:00 10,3 C 67 % 1016,8 hPa 0,0 l/m 1,0 km/h (0 Bft) S-SO 0,48 h 0,178 mm 311 W/m 4,4 C 10,3 C 2,9 km/h (1 Bft)
11/01/2021 13:00 9,3 C 70 % 1016,2 hPa 0,0 l/m 1,3 km/h (1 Bft) S-SO 0,55 h 0,152 mm 243 W/m 4,2 C 9,3 C 3,1 km/h (1 Bft)
11/01/2021 14:00 9,2 C 71 % 1015,8 hPa 0,0 l/m 0,7 km/h (0 Bft) S-SO 0,05 h 0,127 mm 114 W/m 4,2 C 9,2 C 1,9 km/h (1 Bft)
11/01/2021 15:00 8,2 C 75 % 1016,0 hPa 0,0 l/m 0,0 km/h (0 Bft) N 0,00 h 0,051 mm 76 W/m 4,0 C 8,2 C 0,1 km/h (0 Bft)
11/01/2021 16:00 8,0 C 75 % 1016,4 hPa 0,0 l/m 0,3 km/h (0 Bft) E 0,00 h 0,025 mm 31 W/m 3,8 C 8,0 C 1,2 km/h (1 Bft)
11/01/2021 17:00 7,2 C 74 % 1016,5 hPa 0,0 l/m 0,0 km/h (0 Bft) E 0,00 h 0,025 mm 7 W/m 2,9 C 7,2 C 0,2 km/h (0 Bft)
11/01/2021 18:00 6,6 C 74 % 1016,9 hPa 0,0 l/m 0,0 km/h (0 Bft) N 0,00 h 0,000 mm 0 W/m 2,3 C 6,6 C 0,0 km/h (0 Bft)
11/01/2021 19:00 6,1 C 75 % 1017,4 hPa 0,0 l/m 0,0 km/h (0 Bft) N 0,00 h 0,025 mm 0 W/m 2,0 C 6,1 C 0,0 km/h (0 Bft)
11/01/2021 20:00 5,8 C 76 % 1017,7 hPa 0,0 l/m 0,0 km/h (0 Bft) N 0,00 h 0,025 mm 0 W/m 1,9 C 5,8 C 0,0 km/h (0 Bft)
11/01/2021 21:00 5,4 C 77 % 1018,0 hPa 0,0 l/m 0,0 km/h (0 Bft) N 0,00 h 0,025 mm 0 W/m 1,6 C 5,4 C 0,0 km/h (0 Bft)
11/01/2021 22:00 4,6 C 79 % 1017,9 hPa 0,0 l/m 0,0 km/h (0 Bft) N 0,00 h 0,025 mm 0 W/m 1,2 C 4,6 C 0,2 km/h (0 Bft)
11/01/2021 23:00 3,8 C 81 % 1018,0 hPa 0,0 l/m 0,4 km/h (0 Bft) E-NE 0,00 h 0,000 mm 0 W/m 0,9 C 3,8 C 2,1 km/h (1 Bft)
12/01/2021 00:00 3,1 C 82 % 1018,0 hPa 0,0 l/m 1,3 km/h (1 Bft) N 0,00 h 0,000 mm 0 W/m 0,3 C 3,1 C 3,1 km/h (1 Bft)
12/01/2021 01:00 2,7 C 81 % 1017,5 hPa 0,0 l/m 0,7 km/h (0 Bft) N 0,00 h 0,000 mm 0 W/m -0,1 C 2,7 C 2,3 km/h (1 Bft)
12/01/2021 02:00 2,5 C 79 % 1017,7 hPa 0,0 l/m 0,1 km/h (0 Bft) N 0,00 h 0,000 mm 0 W/m -0,7 C 2,5 C 1,1 km/h (0 Bft)
12/01/2021 03:00 2,2 C 76 % 1017,7 hPa 0,0 l/m 0,2 km/h (0 Bft) N 0,00 h 0,000 mm 0 W/m -1,5 C 2,2 C 0,9 km/h (0 Bft)
12/01/2021 04:00 2,0 C 73 % 1017,1 hPa 0,0 l/m 0,0 km/h (0 Bft) N 0,00 h 0,025 mm 0 W/m -2,3 C 2,0 C 0,1 km/h (0 Bft)
12/01/2021 05:00 2,1 C 69 % 1017,1 hPa 0,0 l/m 0,5 km/h (0 Bft) N 0,00 h 0,025 mm 0 W/m -3,0 C 2,1 C 1,6 km/h (1 Bft)
12/01/2021 06:00 2,2 C 66 % 1016,9 hPa 0,0 l/m 0,6 km/h (0 Bft) N 0,00 h 0,025 mm 0 W/m -3,5 C 2,2 C 1,7 km/h (1 Bft)
12/01/2021 07:00 2,2 C 63 % 1016,8 hPa 0,0 l/m 0,2 km/h (0 Bft) N 0,00 h 0,025 mm 0 W/m -4,0 C 2,2 C 1,0 km/h (0 Bft)
12/01/2021 08:00 2,3 C 62 % 1016,9 hPa 0,0 l/m 0,1 km/h (0 Bft) N 0,45 h 0,000 mm 35 W/m -4,3 C 2,3 C 0,6 km/h (0 Bft)
12/01/2021 09:00 3,3 C 61 % 1017,1 hPa 0,0 l/m 0,0 km/h (0 Bft) N 0,00 h 0,025 mm 83 W/m -3,5 C 3,3 C 0,2 km/h (0 Bft)
12/01/2021 10:00 4,5 C 63 % 1017,1 hPa 0,0 l/m 0,0 km/h (0 Bft) N 0,00 h 0,025 mm 137 W/m -1,8 C 4,5 C 0,0 km/h (0 Bft)
12/01/2021 11:00 6,2 C 61 % 1016,8 hPa 0,0 l/m 0,0 km/h (0 Bft) N 0,00 h 0,051 mm 181 W/m -0,7 C 6,2 C 0,0 km/h (0 Bft)
12/01/2021 12:00 7,3 C 58 % 1015,8 hPa 0,0 l/m 0,1 km/h (0 Bft) N 0,40 h 0,076 mm 232 W/m -0,5 C 7,3 C 0,2 km/h (0 Bft)
12/01/2021 13:00 8,4 C 63 % 1014,8 hPa 0,0 l/m 0,1 km/h (0 Bft) NE 0,83 h 0,102 mm 299 W/m 1,9 C 8,4 C 0,9 km/h (0 Bft)
12/01/2021 14:00 9,9 C 62 % 1013,4 hPa 0,0 l/m 0,1 km/h (0 Bft) NE 1,00 h 0,127 mm 278 W/m 3,0 C 9,9 C 0,4 km/h (0 Bft)
12/01/2021 15:00 8,8 C 66 % 1013,3 hPa 0,0 l/m 0,0 km/h (0 Bft) E-SE 0,10 h 0,127 mm 124 W/m 2,9 C 8,8 C 0,4 km/h (0 Bft)
12/01/2021 16:00 7,6 C 70 % 1013,2 hPa 0,0 l/m 0,0 km/h (0 Bft) N 0,02 h 0,051 mm 54 W/m 2,6 C 7,6 C 0,0 km/h (0 Bft)
12/01/2021 17:00 6,3 C 72 % 1012,9 hPa 0,0 l/m 0,0 km/h (0 Bft) N 0,12 h 0,025 mm 10 W/m 1,6 C 6,3 C 0,0 km/h (0 Bft)
12/01/2021 18:00 5,0 C 73 % 1012,9 hPa 0,0 l/m 0,0 km/h (0 Bft) N 0,00 h 0,000 mm 0 W/m 0,5 C 5,0 C 0,0 km/h (0 Bft)
12/01/2021 19:00 4,2 C 74 % 1012,8 hPa 0,0 l/m 0,0 km/h (0 Bft) E-SE 0,00 h 0,025 mm 0 W/m -0,1 C 4,2 C 0,2 km/h (0 Bft)
12/01/2021 20:00 4,0 C 74 % 1012,6 hPa 0,0 l/m 0,0 km/h (0 Bft) E-SE 0,00 h 0,025 mm 0 W/m -0,3 C 4,0 C 0,2 km/h (0 Bft)
12/01/2021 21:00 4,1 C 76 % 1012,7 hPa 0,0 l/m 0,1 km/h (0 Bft) E-SE 0,00 h 0,025 mm 0 W/m 0,2 C 4,1 C 0,9 km/h (0 Bft)
12/01/2021 22:00 4,0 C 75 % 1012,9 hPa 0,0 l/m 0,3 km/h (0 Bft) E-SE 0,00 h 0,025 mm 0 W/m -0,0 C 4,0 C 0,9 km/h (0 Bft)
12/01/2021 23:00 4,3 C 73 % 1013,2 hPa 0,0 l/m 0,1 km/h (0 Bft) O 0,00 h 0,025 mm 0 W/m -0,1 C 4,3 C 0,3 km/h (0 Bft)
13/01/2021 00:00 4,2 C 74 % 1013,2 hPa 0,0 l/m 0,2 km/h (0 Bft) O 0,00 h 0,025 mm 0 W/m -0,0 C 4,2 C 0,6 km/h (0 Bft)
13/01/2021 01:00 4,4 C 71 % 1013,1 hPa 0,0 l/m 0,5 km/h (0 Bft) O 0,00 h 0,025 mm 0 W/m -0,5 C 4,4 C 1,6 km/h (1 Bft)
13/01/2021 02:00 4,3 C 72 % 1012,9 hPa 0,0 l/m 0,6 km/h (0 Bft) O 0,00 h 0,025 mm 0 W/m -0,2 C 4,3 C 1,9 km/h (1 Bft)
13/01/2021 03:00 4,4 C 76 % 1013,0 hPa 0,0 l/m 0,6 km/h (0 Bft) O 0,00 h 0,025 mm 0 W/m 0,5 C 4,4 C 1,7 km/h (1 Bft)
13/01/2021 04:00 4,4 C 74 % 1012,9 hPa 0,0 l/m 0,2 km/h (0 Bft) O 0,00 h 0,025 mm 0 W/m 0,1 C 4,4 C 0,9 km/h (0 Bft)
13/01/2021 05:00 4,3 C 72 % 1012,9 hPa 0,0 l/m 0,4 km/h (0 Bft) O 0,00 h 0,025 mm 0 W/m -0,3 C 4,3 C 1,4 km/h (1 Bft)
13/01/2021 06:00 4,5 C 70 % 1013,2 hPa 0,0 l/m 0,3 km/h (0 Bft) O 0,00 h 0,025 mm 0 W/m -0,5 C 4,5 C 1,3 km/h (1 Bft)
13/01/2021 07:00 4,9 C 72 % 1013,6 hPa 0,0 l/m 0,1 km/h (0 Bft) O 0,00 h 0,025 mm 5 W/m 0,2 C 4,9 C 1,0 km/h (0 Bft)
13/01/2021 08:00 5,3 C 74 % 1014,2 hPa 0,0 l/m 0,1 km/h (0 Bft) O 0,77 h 0,000 mm 45 W/m 1,0 C 5,3 C 0,6 km/h (0 Bft)
13/01/2021 09:00 7,8 C 73 % 1014,8 hPa 0,0 l/m 0,0 km/h (0 Bft) N 1,00 h 0,025 mm 171 W/m 3,2 C 7,8 C 0,0 km/h (0 Bft)
13/01/2021 10:00 11,1 C 70 % 1015,0 hPa 0,0 l/m 0,0 km/h (0 Bft) N 1,00 h 0,076 mm 285 W/m 5,9 C 11,1 C 0,1 km/h (0 Bft)
13/01/2021 11:00 12,7 C 67 % 1015,1 hPa 0,0 l/m 0,0 km/h (0 Bft) N 1,00 h 0,127 mm 370 W/m 6,7 C 12,7 C 0,1 km/h (0 Bft)
13/01/2021 12:00 13,7 C 64 % 1014,7 hPa 0,0 l/m 0,1 km/h (0 Bft) S-SE 1,00 h 0,178 mm 402 W/m 7,0 C 13,7 C 0,5 km/h (0 Bft)
13/01/2021 13:00 14,1 C 63 % 1013,8 hPa 0,0 l/m 0,1 km/h (0 Bft) S-SE 1,00 h 0,203 mm 384 W/m 7,2 C 14,1 C 1,2 km/h (1 Bft)
13/01/2021 14:00 13,6 C 66 % 1013,6 hPa 0,0 l/m 0,6 km/h (0 Bft) E 1,00 h 0,203 mm 306 W/m 7,4 C 13,6 C 2,2 km/h (1 Bft)
13/01/2021 15:00 13,2 C 69 % 1014,0 hPa 0,0 l/m 0,0 km/h (0 Bft) N 1,00 h 0,152 mm 200 W/m 7,7 C 13,2 C 0,1 km/h (0 Bft)
13/01/2021 16:00 12,3 C 74 % 1014,3 hPa 0,0 l/m 0,0 km/h (0 Bft) N 1,00 h 0,102 mm 77 W/m 7,7 C 12,3 C 0,0 km/h (0 Bft)
13/01/2021 17:00 10,3 C 78 % 1014,4 hPa 0,0 l/m 0,0 km/h (0 Bft) N 0,13 h 0,051 mm 10 W/m 6,6 C 10,3 C 0,0 km/h (0 Bft)
13/01/2021 18:00 8,4 C 84 % 1014,7 hPa 0,0 l/m 0,0 km/h (0 Bft) N 0,00 h 0,000 mm 0 W/m 5,9 C 8,4 C 0,0 km/h (0 Bft)
13/01/2021 19:00 7,5 C 88 % 1015,1 hPa 0,0 l/m 0,0 km/h (0 Bft) N 0,00 h 0,000 mm 0 W/m 5,7 C 7,5 C 0,0 km/h (0 Bft)
13/01/2021 20:00 7,2 C 90 % 1014,7 hPa 0,0 l/m 0,0 km/h (0 Bft) N 0,00 h 0,000 mm 0 W/m 5,7 C 7,2 C 0,0 km/h (0 Bft)
13/01/2021 21:00 7,0 C 92 % 1014,1 hPa 0,0 l/m 0,0 km/h (0 Bft) N 0,00 h 0,000 mm 0 W/m 5,7 C 7,0 C 0,0 km/h (0 Bft)
13/01/2021 22:00 6,9 C 92 % 1013,6 hPa 0,0 l/m 0,0 km/h (0 Bft) N 0,00 h 0,000 mm 0 W/m 5,7 C 6,9 C 0,0 km/h (0 Bft)
13/01/2021 23:00 7,0 C 92 % 1013,4 hPa 0,0 l/m 0,0 km/h (0 Bft) N 0,00 h 0,000 mm 0 W/m 5,8 C 7,0 C 0,0 km/h (0 Bft)
14/01/2021 00:00 6,9 C 93 % 1013,1 hPa 0,0 l/m 0,0 km/h (0 Bft) N 0,00 h 0,000 mm 0 W/m 5,9 C 6,9 C 0,0 km/h (0 Bft)
14/01/2021 01:00 6,8 C 93 % 1012,8 hPa 0,0 l/m 0,0 km/h (0 Bft) N 0,00 h 0,000 mm 0 W/m 5,7 C 6,8 C 0,0 km/h (0 Bft)
14/01/2021 02:00 6,7 C 93 % 1012,3 hPa 0,0 l/m 0,0 km/h (0 Bft) N 0,00 h 0,000 mm 0 W/m 5,6 C 6,7 C 0,0 km/h (0 Bft)
14/01/2021 03:00 6,5 C 94 % 1011,7 hPa 0,0 l/m 0,0 km/h (0 Bft) N 0,00 h 0,000 mm 0 W/m 5,5 C 6,5 C 0,0 km/h (0 Bft)
14/01/2021 04:00 6,3 C 94 % 1010,6 hPa 0,2 l/m 0,0 km/h (0 Bft) N 0,00 h 0,000 mm 0 W/m 5,4 C 6,3 C 0,0 km/h (0 Bft)
14/01/2021 05:00 6,7 C 96 % 1010,0 hPa 0,0 l/m 0,0 km/h (0 Bft) N 0,00 h 0,000 mm 0 W/m 6,1 C 6,7 C 0,0 km/h (0 Bft)
14/01/2021 06:00 6,7 C 95 % 1009,8 hPa 0,0 l/m 0,0 km/h (0 Bft) N 0,00 h 0,000 mm 0 W/m 6,0 C 6,7 C 0,0 km/h (0 Bft)
14/01/2021 07:00 6,1 C 94 % 1010,1 hPa 0,0 l/m 0,0 km/h (0 Bft) N 0,00 h 0,000 mm 5 W/m 5,2 C 6,1 C 0,0 km/h (0 Bft)
14/01/2021 08:00 6,2 C 95 % 1010,3 hPa 0,0 l/m 0,0 km/h (0 Bft) N 0,77 h 0,000 mm 52 W/m 5,4 C 6,2 C 0,0 km/h (0 Bft)
14/01/2021 09:00 8,7 C 95 % 1009,9 hPa 0,0 l/m 0,0 km/h (0 Bft) N 1,00 h 0,025 mm 173 W/m 7,9 C 8,7 C 0,0 km/h (0 Bft)
14/01/2021 10:00 11,7 C 84 % 1009,3 hPa 0,0 l/m 0,0 km/h (0 Bft) NE 1,00 h 0,076 mm 291 W/m 9,2 C 11,7 C 0,5 km/h (0 Bft)
14/01/2021 11:00 13,3 C 76 % 1008,9 hPa 0,0 l/m 0,1 km/h (0 Bft) E-NE 1,00 h 0,152 mm 379 W/m 9,1 C 13,3 C 0,5 km/h (0 Bft)
14/01/2021 12:00 14,6 C 73 % 1008,3 hPa 0,0 l/m 0,6 km/h (0 Bft) E-NE 1,00 h 0,203 mm 411 W/m 9,9 C 14,6 C 2,2 km/h (1 Bft)
14/01/2021 13:00 14,7 C 75 % 1007,6 hPa 0,0 l/m 0,4 km/h (0 Bft) SE 1,00 h 0,203 mm 395 W/m 10,2 C 14,7 C 2,7 km/h (1 Bft)
14/01/2021 14:00 14,3 C 76 % 1007,2 hPa 0,0 l/m 0,7 km/h (0 Bft) S-SE 0,97 h 0,203 mm 318 W/m 10,1 C 14,3 C 2,3 km/h (1 Bft)
14/01/2021 15:00 13,2 C 78 % 1007,6 hPa 0,0 l/m 0,1 km/h (0 Bft) SE 0,63 h 0,152 mm 183 W/m 9,4 C 13,2 C 0,8 km/h (0 Bft)
14/01/2021 16:00 11,7 C 82 % 1008,0 hPa 0,0 l/m 0,0 km/h (0 Bft) SE 0,03 h 0,102 mm 46 W/m 8,6 C 11,7 C 0,2 km/h (0 Bft)
14/01/2021 17:00 10,4 C 85 % 1008,3 hPa 0,0 l/m 0,0 km/h (0 Bft) N 0,00 h 0,025 mm 6 W/m 8,1 C 10,4 C 0,0 km/h (0 Bft)
14/01/2021 18:00 9,7 C 86 % 1008,6 hPa 0,0 l/m 0,0 km/h (0 Bft) N 0,00 h 0,000 mm 0 W/m 7,5 C 9,7 C 0,0 km/h (0 Bft)
14/01/2021 19:00 9,4 C 89 % 1009,5 hPa 0,0 l/m 0,0 km/h (0 Bft) N 0,00 h 0,000 mm 0 W/m 7,7 C 9,4 C 0,2 km/h (0 Bft)
14/01/2021 20:00 9,2 C 89 % 1009,6 hPa 0,0 l/m 0,5 km/h (0 Bft) SE 0,00 h 0,000 mm 0 W/m 7,5 C 9,2 C 1,6 km/h (1 Bft)
14/01/2021 21:00 8,5 C 89 % 1009,8 hPa 0,0 l/m 0,7 km/h (0 Bft) SE 0,00 h 0,000 mm 0 W/m 6,9 C 8,5 C 2,7 km/h (1 Bft)
14/01/2021 22:00 7,7 C 91 % 1009,7 hPa 0,0 l/m 0,2 km/h (0 Bft) S-SE 0,00 h 0,000 mm 0 W/m 6,3 C 7,7 C 0,7 km/h (0 Bft)
14/01/2021 23:00 7,3 C 92 % 1010,1 hPa 0,0 l/m 0,1 km/h (0 Bft) S-SE 0,00 h 0,000 mm 0 W/m 6,1 C 7,3 C 0,2 km/h (0 Bft)
15/01/2021 00:00 7,2 C 92 % 1010,4 hPa 0,0 l/m 0,0 km/h (0 Bft) N 0,00 h 0,000 mm 0 W/m 6,0 C 7,2 C 0,1 km/h (0 Bft)
15/01/2021 01:00 7,7 C 90 % 1010,3 hPa 0,0 l/m 0,2 km/h (0 Bft) S-SE 0,00 h 0,000 mm 0 W/m 6,2 C 7,7 C 0,6 km/h (0 Bft)
15/01/2021 02:00 8,5 C 89 % 1010,3 hPa 0,0 l/m 0,3 km/h (0 Bft) S-SE 0,00 h 0,000 mm 0 W/m 6,8 C 8,5 C 1,6 km/h (1 Bft)
15/01/2021 03:00 8,8 C 91 % 1010,7 hPa 0,4 l/m 0,2 km/h (0 Bft) S-SE 0,00 h 0,000 mm 0 W/m 7,4 C 8,8 C 1,5 km/h (1 Bft)
15/01/2021 04:00 8,6 C 93 % 1010,7 hPa 0,2 l/m 0,2 km/h (0 Bft) S-SE 0,00 h 0,000 mm 0 W/m 7,5 C 8,6 C 0,6 km/h (0 Bft)
15/01/2021 05:00 8,3 C 93 % 1010,5 hPa 0,0 l/m 0,0 km/h (0 Bft) S-SE 0,00 h 0,000 mm 0 W/m 7,2 C 8,3 C 0,2 km/h (0 Bft)
15/01/2021 06:00 7,9 C 91 % 1010,4 hPa 0,0 l/m 0,0 km/h (0 Bft) N 0,00 h 0,000 mm 0 W/m 6,5 C 7,9 C 0,1 km/h (0 Bft)
15/01/2021 07:00 7,6 C 88 % 1010,9 hPa 0,0 l/m 0,0 km/h (0 Bft) N 0,00 h 0,000 mm 0 W/m 5,7 C 7,6 C 0,2 km/h (0 Bft)
15/01/2021 08:00 7,5 C 86 % 1011,4 hPa 0,0 l/m 0,0 km/h (0 Bft) N 0,00 h 0,000 mm 17 W/m 5,3 C 7,5 C 0,1 km/h (0 Bft)
15/01/2021 09:00 7,9 C 86 % 1012,2 hPa 0,0 l/m 0,0 km/h (0 Bft) N 0,02 h 0,000 mm 58 W/m 5,6 C 7,9 C 0,0 km/h (0 Bft)
15/01/2021 10:00 9,4 C 86 % 1013,1 hPa 0,0 l/m 0,0 km/h (0 Bft) N 0,20 h 0,025 mm 146 W/m 7,2 C 9,4 C 0,1 km/h (0 Bft)
15/01/2021 11:00 11,8 C 78 % 1013,5 hPa 0,0 l/m 2,4 km/h (1 Bft) S 0,43 h 0,076 mm 257 W/m 8,0 C 11,8 C 5,5 km/h (1 Bft)
15/01/2021 12:00 11,4 C 76 % 1013,4 hPa 0,0 l/m 4,8 km/h (1 Bft) S 0,50 h 0,127 mm 213 W/m 7,3 C 11,4 C 9,6 km/h (2 Bft)
15/01/2021 13:00 10,9 C 76 % 1012,8 hPa 0,0 l/m 2,7 km/h (1 Bft) S-SO 0,00 h 0,127 mm 72 W/m 6,9 C 10,9 C 6,2 km/h (2 Bft)
15/01/2021 14:00 10,7 C 76 % 1012,3 hPa 0,0 l/m 2,9 km/h (1 Bft) S-SO 0,00 h 0,051 mm 84 W/m 6,8 C 10,7 C 6,4 km/h (2 Bft)
15/01/2021 15:00 10,5 C 79 % 1012,5 hPa 0,0 l/m 0,7 km/h (0 Bft) S-SO 0,00 h 0,051 mm 34 W/m 7,0 C 10,5 C 2,1 km/h (1 Bft)
15/01/2021 16:00 9,7 C 87 % 1012,9 hPa 0,0 l/m 0,0 km/h (0 Bft) N 0,00 h 0,025 mm 12 W/m 7,6 C 9,7 C 0,1 km/h (0 Bft)
15/01/2021 17:00 8,8 C 91 % 1013,2 hPa 0,6 l/m 0,2 km/h (0 Bft) SO 0,00 h 0,000 mm 0 W/m 7,4 C 8,8 C 1,3 km/h (1 Bft)
15/01/2021 18:00 8,3 C 94 % 1013,5 hPa 1,0 l/m 0,6 km/h (0 Bft) SO 0,00 h 0,000 mm 0 W/m 7,3 C 8,3 C 1,8 km/h (1 Bft)
15/01/2021 19:00 8,0 C 95 % 1014,1 hPa 0,2 l/m 1,7 km/h (1 Bft) SO 0,00 h 0,000 mm 0 W/m 7,2 C 8,0 C 4,4 km/h (1 Bft)
15/01/2021 20:00 7,7 C 95 % 1014,6 hPa 0,0 l/m 0,7 km/h (0 Bft) SO 0,00 h 0,000 mm 0 W/m 7,0 C 7,7 C 2,2 km/h (1 Bft)
15/01/2021 21:00 7,4 C 95 % 1015,0 hPa 0,0 l/m 1,4 km/h (1 Bft) SO 0,00 h 0,000 mm 0 W/m 6,7 C 7,4 C 3,5 km/h (1 Bft)
15/01/2021 22:00 7,4 C 95 % 1015,5 hPa 0,0 l/m 1,1 km/h (1 Bft) SO 0,00 h 0,000 mm 0 W/m 6,6 C 7,4 C 3,5 km/h (1 Bft)
15/01/2021 23:00 7,3 C 94 % 1016,0 hPa 0,0 l/m 0,2 km/h (0 Bft) SO 0,00 h 0,000 mm 0 W/m 6,4 C 7,3 C 1,1 km/h (0 Bft)
16/01/2021 00:00 7,3 C 94 % 1016,5 hPa 0,0 l/m 0,0 km/h (0 Bft) N 0,00 h 0,000 mm 0 W/m 6,4 C 7,3 C 0,0 km/h (0 Bft)
16/01/2021 01:00 7,3 C 93 % 1016,7 hPa 0,0 l/m 0,0 km/h (0 Bft) N 0,00 h 0,000 mm 0 W/m 6,2 C 7,3 C 0,0 km/h (0 Bft)
16/01/2021 02:00 7,2 C 93 % 1017,3 hPa 0,0 l/m 0,0 km/h (0 Bft) N 0,00 h 0,000 mm 0 W/m 6,1 C 7,2 C 0,0 km/h (0 Bft)
16/01/2021 03:00 7,2 C 92 % 1017,7 hPa 0,0 l/m 0,0 km/h (0 Bft) N 0,00 h 0,000 mm 0 W/m 6,1 C 7,2 C 0,2 km/h (0 Bft)
16/01/2021 04:00 7,3 C 92 % 1017,9 hPa 0,0 l/m 0,2 km/h (0 Bft) SO 0,00 h 0,000 mm 0 W/m 6,1 C 7,3 C 1,1 km/h (1 Bft)
16/01/2021 05:00 7,3 C 93 % 1018,5 hPa 0,2 l/m 0,1 km/h (0 Bft) SO 0,00 h 0,000 mm 0 W/m 6,3 C 7,3 C 0,4 km/h (0 Bft)
16/01/2021 06:00 7,2 C 94 % 1018,8 hPa 0,0 l/m 0,0 km/h (0 Bft) SO 0,00 h 0,000 mm 0 W/m 6,3 C 7,2 C 0,4 km/h (0 Bft)
16/01/2021 07:00 6,4 C 93 % 1019,2 hPa 0,0 l/m 1,0 km/h (0 Bft) SO 0,00 h 0,000 mm 0 W/m 5,3 C 6,4 C 3,6 km/h (1 Bft)
16/01/2021 08:00 6,4 C 91 % 1019,5 hPa 0,0 l/m 0,9 km/h (0 Bft) SO 0,00 h 0,000 mm 7 W/m 5,1 C 6,4 C 3,5 km/h (1 Bft)
16/01/2021 09:00 6,7 C 90 % 1019,9 hPa 0,0 l/m 0,9 km/h (0 Bft) SO 0,00 h 0,000 mm 21 W/m 5,2 C 6,7 C 3,7 km/h (1 Bft)
16/01/2021 10:00 7,3 C 89 % 1020,7 hPa 0,0 l/m 0,6 km/h (0 Bft) SO 0,00 h 0,000 mm 78 W/m 5,6 C 7,3 C 3,3 km/h (1 Bft)
16/01/2021 11:00 8,2 C 84 % 1021,1 hPa 0,0 l/m 1,3 km/h (1 Bft) SO 0,00 h 0,025 mm 94 W/m 5,7 C 8,2 C 4,5 km/h (1 Bft)
16/01/2021 12:00 8,1 C 83 % 1020,8 hPa 0,0 l/m 1,5 km/h (1 Bft) SO 0,00 h 0,051 mm 87 W/m 5,4 C 8,1 C 4,4 km/h (1 Bft)
16/01/2021 13:00 8,1 C 82 % 1020,3 hPa 0,0 l/m 0,4 km/h (0 Bft) SO 0,00 h 0,051 mm 83 W/m 5,2 C 8,1 C 1,9 km/h (1 Bft)
16/01/2021 14:00 8,4 C 79 % 1019,9 hPa 0,0 l/m 0,1 km/h (0 Bft) SO 0,12 h 0,051 mm 132 W/m 5,0 C 8,4 C 0,9 km/h (0 Bft)
16/01/2021 15:00 9,7 C 72 % 1019,8 hPa 0,0 l/m 0,0 km/h (0 Bft) SO 0,62 h 0,051 mm 161 W/m 4,9 C 9,7 C 0,1 km/h (0 Bft)
16/01/2021 16:00 9,1 C 74 % 1019,5 hPa 0,0 l/m 0,0 km/h (0 Bft) N 0,28 h 0,076 mm 73 W/m 4,8 C 9,1 C 0,0 km/h (0 Bft)
16/01/2021 17:00 7,1 C 82 % 1019,5 hPa 0,0 l/m 1,8 km/h (1 Bft) O-SO 0,02 h 0,025 mm 8 W/m 4,2 C 7,0 C 4,8 km/h (1 Bft)
16/01/2021 18:00 6,1 C 85 % 1019,5 hPa 0,0 l/m 3,7 km/h (1 Bft) O-SO 0,00 h 0,000 mm 0 W/m 3,7 C 5,7 C 8,0 km/h (2 Bft)
16/01/2021 19:00 5,6 C 85 % 1019,3 hPa 0,0 l/m 2,4 km/h (1 Bft) O-SO 0,00 h 0,025 mm 0 W/m 3,2 C 5,4 C 6,1 km/h (2 Bft)
16/01/2021 20:00 5,2 C 85 % 1019,3 hPa 0,0 l/m 0,0 km/h (0 Bft) N 0,00 h 0,000 mm 0 W/m 2,8 C 5,2 C 0,0 km/h (0 Bft)
16/01/2021 21:00 4,4 C 88 % 1018,7 hPa 0,0 l/m 0,0 km/h (0 Bft) O-SO 0,00 h 0,000 mm 0 W/m 2,7 C 4,4 C 0,1 km/h (0 Bft)
16/01/2021 22:00 4,2 C 90 % 1018,0 hPa 0,0 l/m 0,0 km/h (0 Bft) N 0,00 h 0,000 mm 0 W/m 2,7 C 4,2 C 0,1 km/h (0 Bft)
16/01/2021 23:00 4,1 C 90 % 1017,3 hPa 0,0 l/m 0,0 km/h (0 Bft) O-SO 0,00 h 0,000 mm 0 W/m 2,6 C 4,1 C 0,2 km/h (0 Bft)
17/01/2021 00:00 4,0 C 89 % 1016,6 hPa 0,0 l/m 0,1 km/h (0 Bft) O-SO 0,00 h 0,000 mm 0 W/m 2,3 C 4,0 C 0,3 km/h (0 Bft)
17/01/2021 01:00 3,8 C 85 % 1015,6 hPa 0,0 l/m 1,0 km/h (0 Bft) O-SO 0,00 h 0,000 mm 0 W/m 1,5 C 3,8 C 2,6 km/h (1 Bft)
17/01/2021 02:00 3,7 C 81 % 1014,7 hPa 0,0 l/m 0,2 km/h (0 Bft) O-SO 0,00 h 0,000 mm 0 W/m 0,7 C 3,7 C 0,9 km/h (0 Bft)
17/01/2021 03:00 3,1 C 84 % 1013,9 hPa 0,0 l/m 1,1 km/h (1 Bft) O-SO 0,00 h 0,000 mm 0 W/m 0,7 C 3,1 C 2,8 km/h (1 Bft)
17/01/2021 04:00 2,8 C 82 % 1013,0 hPa 0,0 l/m 0,6 km/h (0 Bft) O-SO 0,00 h 0,000 mm 0 W/m 0,1 C 2,8 C 2,2 km/h (1 Bft)
17/01/2021 05:00 3,1 C 80 % 1012,1 hPa 0,0 l/m 0,3 km/h (0 Bft) O-SO 0,00 h 0,000 mm 0 W/m 0,0 C 3,1 C 1,2 km/h (1 Bft)
17/01/2021 06:00 2,8 C 83 % 1011,8 hPa 0,0 l/m 0,1 km/h (0 Bft) O-SO 0,00 h 0,000 mm 0 W/m 0,1 C 2,8 C 1,1 km/h (1 Bft)
17/01/2021 07:00 2,8 C 83 % 1012,1 hPa 0,0 l/m 0,0 km/h (0 Bft) N 0,00 h 0,000 mm 0 W/m 0,3 C 2,8 C 0,6 km/h (0 Bft)
17/01/2021 08:00 3,7 C 85 % 1012,7 hPa 0,0 l/m 0,1 km/h (0 Bft) O-SO 0,78 h 0,000 mm 45 W/m 1,3 C 3,7 C 0,8 km/h (0 Bft)
17/01/2021 09:00 6,6 C 81 % 1013,0 hPa 0,0 l/m 0,0 km/h (0 Bft) N 1,00 h 0,025 mm 172 W/m 3,5 C 6,6 C 0,1 km/h (0 Bft)
17/01/2021 10:00 10,0 C 72 % 1013,3 hPa 0,0 l/m 0,0 km/h (0 Bft) N 1,00 h 0,076 mm 293 W/m 5,1 C 10,0 C 0,0 km/h (0 Bft)
17/01/2021 11:00 12,0 C 66 % 1013,5 hPa 0,0 l/m 0,0 km/h (0 Bft) N 0,98 h 0,127 mm 372 W/m 5,9 C 12,0 C 0,0 km/h (0 Bft)
17/01/2021 12:00 12,2 C 66 % 1013,2 hPa 0,0 l/m 0,0 km/h (0 Bft) N 0,85 h 0,178 mm 361 W/m 6,0 C 12,2 C 0,1 km/h (0 Bft)
17/01/2021 13:00 12,8 C 66 % 1012,3 hPa 0,0 l/m 0,1 km/h (0 Bft) S-SO 0,97 h 0,178 mm 396 W/m 6,5 C 12,8 C 0,8 km/h (0 Bft)
17/01/2021 14:00 12,8 C 65 % 1011,8 hPa 0,0 l/m 0,0 km/h (0 Bft) N 0,98 h 0,203 mm 320 W/m 6,5 C 12,8 C 0,5 km/h (0 Bft)
17/01/2021 15:00 12,3 C 67 % 1011,9 hPa 0,0 l/m 0,1 km/h (0 Bft) S-SO 1,00 h 0,152 mm 217 W/m 6,3 C 12,3 C 0,3 km/h (0 Bft)
17/01/2021 16:00 11,8 C 68 % 1012,3 hPa 0,0 l/m 0,0 km/h (0 Bft) N 0,80 h 0,102 mm 83 W/m 6,0 C 11,8 C 0,0 km/h (0 Bft)
17/01/2021 17:00 9,7 C 73 % 1013,1 hPa 0,0 l/m 0,0 km/h (0 Bft) N 0,15 h 0,051 mm 13 W/m 5,1 C 9,7 C 0,0 km/h (0 Bft)
17/01/2021 18:00 7,4 C 79 % 1014,3 hPa 0,0 l/m 0,0 km/h (0 Bft) N 0,00 h 0,000 mm 0 W/m 4,0 C 7,4 C 0,0 km/h (0 Bft)
17/01/2021 19:00 6,5 C 83 % 1015,2 hPa 0,0 l/m 0,4 km/h (0 Bft) S-SO 0,00 h 0,025 mm 0 W/m 3,7 C 6,5 C 0,9 km/h (0 Bft)
17/01/2021 20:00 6,2 C 82 % 1016,0 hPa 0,0 l/m 0,5 km/h (0 Bft) S-SO 0,00 h 0,000 mm 0 W/m 3,3 C 6,2 C 1,9 km/h (1 Bft)
17/01/2021 21:00 6,0 C 79 % 1016,7 hPa 0,0 l/m 0,7 km/h (0 Bft) S-SO 0,00 h 0,000 mm 0 W/m 2,6 C 6,0 C 2,5 km/h (1 Bft)
17/01/2021 22:00 5,7 C 76 % 1017,3 hPa 0,0 l/m 0,7 km/h (0 Bft) S-SO 0,00 h 0,025 mm 0 W/m 1,8 C 5,7 C 2,1 km/h (1 Bft)
17/01/2021 23:00 5,8 C 76 % 1017,9 hPa 0,0 l/m 0,6 km/h (0 Bft) S-SO 0,00 h 0,025 mm 0 W/m 1,9 C 5,8 C 1,6 km/h (1 Bft)
Min-Date _ 12/01/21 12/01/21 14/01/21 - 11/01/21 - - - - 12/01/21 11/01/21 11/01/21
_ Min-Heure 04:56 12:31 14:15 - 00:00 - - - - 08:22 07:18 00:01
Minimum _ 1,9 C 54 % 1007,1 hPa - 0,0 km/h (0 Bft) - - - - -4,6 C 1,1 C 0,0 km/h (0 Bft)
Max-Date _ 14/01/21 14/01/21 16/01/21 15/01/21 15/01/21 - 11/01/21 13/01/21 11/01/21 14/01/21 14/01/21 15/01/21
_ Max-Heure 13:10 05:09 11:00 18:00 11:31 - 08:15 13:00 12:19 13:59 13:10 12:14
Maximum _ 14,9 C 96 % 1021,1 hPa 1,0 l/m 9,7 km/h
S (2 Bft)
- 0,02 h 0,203 mm 573 W/m 10,6 C 14,9 C 20,9 km/h
S (4 Bft)
Moyenne _ 7,2 C 80 % 1014,3 hPa #2,8 l/m 0,4 km/h (0 Bft) O-NO #34:35 h #6,307 mm 162 W/m 3,9 C 7,2 C 1,3 km/h (1 Bft)
Roquefort les pins